sensor_id;sensor_type;location;lat;lon;timestamp;P1;durP1;ratioP1;P2;durP2;ratioP2
11092;SDS011;5600;50.864;6.102;2023-02-04T00:02:43;58.67;;;4.67;;
11092;SDS011;5600;50.864;6.102;2023-02-04T00:05:44;58.70;;;4.90;;
11092;SDS011;5600;50.864;6.102;2023-02-04T00:08:44;55.70;;;4.33;;
11092;SDS011;5600;50.864;6.102;2023-02-04T00:11:45;54.70;;;4.57;;
11092;SDS011;5600;50.864;6.102;2023-02-04T00:14:46;52.03;;;4.50;;
11092;SDS011;5600;50.864;6.102;2023-02-04T00:17:46;51.80;;;4.23;;
11092;SDS011;5600;50.864;6.102;2023-02-04T00:20:47;92.60;;;6.10;;
11092;SDS011;5600;50.864;6.102;2023-02-04T00:23:47;56.77;;;4.43;;
11092;SDS011;5600;50.864;6.102;2023-02-04T00:26:50;55.43;;;4.33;;
11092;SDS011;5600;50.864;6.102;2023-02-04T00:29:50;55.77;;;4.30;;
11092;SDS011;5600;50.864;6.102;2023-02-04T00:32:51;33.87;;;3.67;;
11092;SDS011;5600;50.864;6.102;2023-02-04T00:35:54;49.90;;;4.20;;
11092;SDS011;5600;50.864;6.102;2023-02-04T00:38:55;49.73;;;4.13;;
11092;SDS011;5600;50.864;6.102;2023-02-04T00:41:55;55.00;;;4.07;;
11092;SDS011;5600;50.864;6.102;2023-02-04T00:44:56;54.93;;;4.10;;
11092;SDS011;5600;50.864;6.102;2023-02-04T00:47:57;63.83;;;4.80;;
11092;SDS011;5600;50.864;6.102;2023-02-04T00:50:57;69.23;;;4.97;;
11092;SDS011;5600;50.864;6.102;2023-02-04T00:53:58;47.33;;;3.80;;
11092;SDS011;5600;50.864;6.102;2023-02-04T00:56:59;44.07;;;3.70;;
11092;SDS011;5600;50.864;6.102;2023-02-04T00:59:59;31.10;;;3.20;;
11092;SDS011;5600;50.864;6.102;2023-02-04T01:03:00;46.27;;;3.93;;
11092;SDS011;5600;50.864;6.102;2023-02-04T01:06:01;43.77;;;3.70;;
11092;SDS011;5600;50.864;6.102;2023-02-04T01:09:02;63.63;;;4.97;;
11092;SDS011;5600;50.864;6.102;2023-02-04T01:12:03;60.93;;;4.97;;
11092;SDS011;5600;50.864;6.102;2023-02-04T01:15:04;42.03;;;3.63;;
11092;SDS011;5600;50.864;6.102;2023-02-04T01:18:05;49.23;;;3.90;;
11092;SDS011;5600;50.864;6.102;2023-02-04T01:21:05;68.47;;;4.73;;
11092;SDS011;5600;50.864;6.102;2023-02-04T01:24:06;53.50;;;4.40;;
11092;SDS011;5600;50.864;6.102;2023-02-04T01:27:27;58.57;;;4.93;;
11092;SDS011;5600;50.864;6.102;2023-02-04T01:30:28;59.63;;;4.50;;
11092;SDS011;5600;50.864;6.102;2023-02-04T01:33:29;57.83;;;4.50;;
11092;SDS011;5600;50.864;6.102;2023-02-04T01:36:30;63.57;;;4.43;;
11092;SDS011;5600;50.864;6.102;2023-02-04T01:39:31;45.37;;;3.70;;
11092;SDS011;5600;50.864;6.102;2023-02-04T01:42:33;55.30;;;4.27;;
11092;SDS011;5600;50.864;6.102;2023-02-04T01:45:35;44.67;;;3.93;;
11092;SDS011;5600;50.864;6.102;2023-02-04T01:48:36;57.30;;;4.57;;
11092;SDS011;5600;50.864;6.102;2023-02-04T01:51:37;44.77;;;3.53;;
11092;SDS011;5600;50.864;6.102;2023-02-04T01:54:38;41.83;;;3.53;;
11092;SDS011;5600;50.864;6.102;2023-02-04T01:57:39;56.30;;;4.70;;
11092;SDS011;5600;50.864;6.102;2023-02-04T02:00:40;38.67;;;3.63;;
11092;SDS011;5600;50.864;6.102;2023-02-04T02:03:41;53.93;;;4.57;;
11092;SDS011;5600;50.864;6.102;2023-02-04T02:06:52;58.57;;;4.37;;
11092;SDS011;5600;50.864;6.102;2023-02-04T02:09:56;61.23;;;4.97;;
11092;SDS011;5600;50.864;6.102;2023-02-04T02:12:56;51.83;;;3.87;;
11092;SDS011;5600;50.864;6.102;2023-02-04T02:15:57;54.63;;;4.20;;
11092;SDS011;5600;50.864;6.102;2023-02-04T02:18:58;57.20;;;4.70;;
11092;SDS011;5600;50.864;6.102;2023-02-04T02:22:03;45.53;;;4.07;;
11092;SDS011;5600;50.864;6.102;2023-02-04T02:25:10;40.57;;;3.60;;
11092;SDS011;5600;50.864;6.102;2023-02-04T02:28:14;51.67;;;4.10;;
11092;SDS011;5600;50.864;6.102;2023-02-04T02:31:18;40.77;;;3.87;;
11092;SDS011;5600;50.864;6.102;2023-02-04T02:34:20;57.83;;;4.53;;
11092;SDS011;5600;50.864;6.102;2023-02-04T02:37:21;60.53;;;4.63;;
11092;SDS011;5600;50.864;6.102;2023-02-04T02:40:22;62.33;;;4.70;;
11092;SDS011;5600;50.864;6.102;2023-02-04T02:43:23;52.57;;;4.73;;
11092;SDS011;5600;50.864;6.102;2023-02-04T02:46:26;66.53;;;4.87;;
11092;SDS011;5600;50.864;6.102;2023-02-04T02:49:27;55.00;;;4.70;;
11092;SDS011;5600;50.864;6.102;2023-02-04T02:52:29;62.10;;;5.13;;
11092;SDS011;5600;50.864;6.102;2023-02-04T02:55:30;57.87;;;4.53;;
11092;SDS011;5600;50.864;6.102;2023-02-04T02:58:32;51.03;;;4.40;;
11092;SDS011;5600;50.864;6.102;2023-02-04T03:01:35;44.53;;;4.00;;
11092;SDS011;5600;50.864;6.102;2023-02-04T03:04:37;62.27;;;4.90;;
11092;SDS011;5600;50.864;6.102;2023-02-04T03:07:43;56.97;;;4.27;;
11092;SDS011;5600;50.864;6.102;2023-02-04T03:10:43;39.07;;;3.37;;
11092;SDS011;5600;50.864;6.102;2023-02-04T03:13:45;52.67;;;4.23;;
11092;SDS011;5600;50.864;6.102;2023-02-04T03:16:46;48.33;;;3.77;;
11092;SDS011;5600;50.864;6.102;2023-02-04T03:19:47;49.07;;;4.20;;
11092;SDS011;5600;50.864;6.102;2023-02-04T03:22:49;57.13;;;4.83;;
11092;SDS011;5600;50.864;6.102;2023-02-04T03:25:51;59.83;;;4.90;;
11092;SDS011;5600;50.864;6.102;2023-02-04T03:28:53;45.53;;;4.17;;
11092;SDS011;5600;50.864;6.102;2023-02-04T03:31:53;60.47;;;4.63;;
11092;SDS011;5600;50.864;6.102;2023-02-04T03:34:54;43.67;;;4.07;;
11092;SDS011;5600;50.864;6.102;2023-02-04T03:37:55;30.43;;;3.27;;
11092;SDS011;5600;50.864;6.102;2023-02-04T03:40:55;61.80;;;4.70;;
11092;SDS011;5600;50.864;6.102;2023-02-04T03:43:56;43.90;;;4.00;;
11092;SDS011;5600;50.864;6.102;2023-02-04T03:46:56;54.77;;;4.23;;
11092;SDS011;5600;50.864;6.102;2023-02-04T03:49:59;50.80;;;4.60;;
11092;SDS011;5600;50.864;6.102;2023-02-04T03:52:59;47.43;;;3.97;;
11092;SDS011;5600;50.864;6.102;2023-02-04T03:56:01;46.90;;;4.20;;
11092;SDS011;5600;50.864;6.102;2023-02-04T03:59:02;53.37;;;4.60;;
11092;SDS011;5600;50.864;6.102;2023-02-04T04:02:02;40.97;;;3.53;;
11092;SDS011;5600;50.864;6.102;2023-02-04T04:05:03;52.23;;;4.57;;
11092;SDS011;5600;50.864;6.102;2023-02-04T04:08:04;49.57;;;4.30;;
11092;SDS011;5600;50.864;6.102;2023-02-04T04:11:04;68.90;;;5.33;;
11092;SDS011;5600;50.864;6.102;2023-02-04T04:14:05;56.57;;;4.63;;
11092;SDS011;5600;50.864;6.102;2023-02-04T04:17:06;52.30;;;4.27;;
11092;SDS011;5600;50.864;6.102;2023-02-04T04:20:07;61.63;;;5.17;;
11092;SDS011;5600;50.864;6.102;2023-02-04T04:23:08;52.30;;;4.43;;
11092;SDS011;5600;50.864;6.102;2023-02-04T04:26:08;32.47;;;3.37;;
11092;SDS011;5600;50.864;6.102;2023-02-04T04:29:09;60.00;;;5.67;;
11092;SDS011;5600;50.864;6.102;2023-02-04T04:32:10;49.47;;;4.30;;
11092;SDS011;5600;50.864;6.102;2023-02-04T04:35:10;61.47;;;4.83;;
11092;SDS011;5600;50.864;6.102;2023-02-04T04:38:11;59.83;;;5.23;;
11092;SDS011;5600;50.864;6.102;2023-02-04T04:41:11;53.73;;;5.53;;
11092;SDS011;5600;50.864;6.102;2023-02-04T04:44:12;42.00;;;4.70;;
11092;SDS011;5600;50.864;6.102;2023-02-04T04:47:13;51.73;;;4.83;;
11092;SDS011;5600;50.864;6.102;2023-02-04T04:50:13;55.37;;;4.63;;
11092;SDS011;5600;50.864;6.102;2023-02-04T04:53:14;52.77;;;4.80;;
11092;SDS011;5600;50.864;6.102;2023-02-04T04:56:15;45.00;;;4.07;;
11092;SDS011;5600;50.864;6.102;2023-02-04T04:59:15;50.17;;;4.10;;
11092;SDS011;5600;50.864;6.102;2023-02-04T05:02:16;56.77;;;5.00;;
11092;SDS011;5600;50.864;6.102;2023-02-04T05:05:16;48.10;;;4.57;;
11092;SDS011;5600;50.864;6.102;2023-02-04T05:08:17;61.03;;;5.07;;
11092;SDS011;5600;50.864;6.102;2023-02-04T05:11:20;56.17;;;4.70;;
11092;SDS011;5600;50.864;6.102;2023-02-04T05:14:20;47.90;;;4.50;;
11092;SDS011;5600;50.864;6.102;2023-02-04T05:17:21;52.90;;;4.83;;
11092;SDS011;5600;50.864;6.102;2023-02-04T05:20:22;58.00;;;5.13;;
11092;SDS011;5600;50.864;6.102;2023-02-04T05:23:23;48.67;;;4.83;;
11092;SDS011;5600;50.864;6.102;2023-02-04T05:26:23;61.50;;;4.90;;
11092;SDS011;5600;50.864;6.102;2023-02-04T05:29:24;50.77;;;4.73;;
11092;SDS011;5600;50.864;6.102;2023-02-04T05:32:25;47.37;;;4.87;;
11092;SDS011;5600;50.864;6.102;2023-02-04T05:35:25;51.93;;;4.87;;
11092;SDS011;5600;50.864;6.102;2023-02-04T05:38:26;50.30;;;4.67;;
11092;SDS011;5600;50.864;6.102;2023-02-04T05:41:26;53.07;;;5.17;;
11092;SDS011;5600;50.864;6.102;2023-02-04T05:44:27;66.80;;;5.90;;
11092;SDS011;5600;50.864;6.102;2023-02-04T05:47:28;57.97;;;5.00;;
11092;SDS011;5600;50.864;6.102;2023-02-04T05:50:28;54.70;;;4.90;;
11092;SDS011;5600;50.864;6.102;2023-02-04T05:53:41;77.83;;;6.17;;
11092;SDS011;5600;50.864;6.102;2023-02-04T05:56:42;46.30;;;4.63;;
11092;SDS011;5600;50.864;6.102;2023-02-04T05:59:42;50.33;;;5.10;;
11092;SDS011;5600;50.864;6.102;2023-02-04T06:02:43;51.00;;;4.63;;
11092;SDS011;5600;50.864;6.102;2023-02-04T06:05:44;55.27;;;5.30;;
11092;SDS011;5600;50.864;6.102;2023-02-04T06:08:44;47.83;;;5.10;;
11092;SDS011;5600;50.864;6.102;2023-02-04T06:11:45;59.73;;;6.07;;
11092;SDS011;5600;50.864;6.102;2023-02-04T06:14:45;47.67;;;5.50;;
11092;SDS011;5600;50.864;6.102;2023-02-04T06:17:46;44.57;;;4.83;;
11092;SDS011;5600;50.864;6.102;2023-02-04T06:20:47;89.17;;;7.37;;
11092;SDS011;5600;50.864;6.102;2023-02-04T06:23:47;41.90;;;5.30;;
11092;SDS011;5600;50.864;6.102;2023-02-04T06:26:48;52.93;;;5.97;;
11092;SDS011;5600;50.864;6.102;2023-02-04T06:29:52;60.77;;;6.63;;
11092;SDS011;5600;50.864;6.102;2023-02-04T06:32:53;63.60;;;7.17;;
11092;SDS011;5600;50.864;6.102;2023-02-04T06:35:54;61.17;;;7.13;;
11092;SDS011;5600;50.864;6.102;2023-02-04T06:38:54;73.30;;;8.07;;
11092;SDS011;5600;50.864;6.102;2023-02-04T06:41:55;50.37;;;7.07;;
11092;SDS011;5600;50.864;6.102;2023-02-04T06:44:56;60.67;;;7.53;;
11092;SDS011;5600;50.864;6.102;2023-02-04T06:47:57;63.10;;;8.40;;
11092;SDS011;5600;50.864;6.102;2023-02-04T06:50:57;85.03;;;9.87;;
11092;SDS011;5600;50.864;6.102;2023-02-04T06:53:58;57.17;;;8.30;;
11092;SDS011;5600;50.864;6.102;2023-02-04T06:56:59;52.17;;;7.17;;
11092;SDS011;5600;50.864;6.102;2023-02-04T07:00:06;81.00;;;9.80;;
11092;SDS011;5600;50.864;6.102;2023-02-04T07:03:08;53.07;;;8.90;;
11092;SDS011;5600;50.864;6.102;2023-02-04T07:06:09;51.53;;;8.90;;
11092;SDS011;5600;50.864;6.102;2023-02-04T07:09:10;54.80;;;9.47;;
11092;SDS011;5600;50.864;6.102;2023-02-04T07:12:10;68.67;;;10.10;;
11092;SDS011;5600;50.864;6.102;2023-02-04T07:15:11;53.87;;;9.33;;
11092;SDS011;5600;50.864;6.102;2023-02-04T07:18:12;55.60;;;9.03;;
11092;SDS011;5600;50.864;6.102;2023-02-04T07:21:13;78.23;;;11.20;;
11092;SDS011;5600;50.864;6.102;2023-02-04T07:24:14;97.20;;;11.43;;
11092;SDS011;5600;50.864;6.102;2023-02-04T07:27:15;75.63;;;11.07;;
11092;SDS011;5600;50.864;6.102;2023-02-04T07:30:15;81.17;;;11.27;;
11092;SDS011;5600;50.864;6.102;2023-02-04T07:33:16;74.63;;;11.93;;
11092;SDS011;5600;50.864;6.102;2023-02-04T07:36:17;69.63;;;10.40;;
11092;SDS011;5600;50.864;6.102;2023-02-04T07:39:17;58.73;;;10.97;;
11092;SDS011;5600;50.864;6.102;2023-02-04T07:42:18;67.63;;;10.70;;
11092;SDS011;5600;50.864;6.102;2023-02-04T07:45:26;73.10;;;11.13;;
11092;SDS011;5600;50.864;6.102;2023-02-04T07:48:27;66.30;;;11.80;;
11092;SDS011;5600;50.864;6.102;2023-02-04T07:51:27;76.70;;;12.27;;
11092;SDS011;5600;50.864;6.102;2023-02-04T07:54:28;52.63;;;10.90;;
11092;SDS011;5600;50.864;6.102;2023-02-04T07:57:29;75.90;;;11.23;;
11092;SDS011;5600;50.864;6.102;2023-02-04T08:00:30;72.07;;;11.27;;
11092;SDS011;5600;50.864;6.102;2023-02-04T08:03:31;66.27;;;10.93;;
11092;SDS011;5600;50.864;6.102;2023-02-04T08:06:32;73.60;;;11.27;;
11092;SDS011;5600;50.864;6.102;2023-02-04T08:09:32;74.97;;;11.40;;
11092;SDS011;5600;50.864;6.102;2023-02-04T08:12:33;67.23;;;11.33;;
11092;SDS011;5600;50.864;6.102;2023-02-04T08:15:34;72.00;;;11.20;;
11092;SDS011;5600;50.864;6.102;2023-02-04T08:18:34;59.27;;;9.87;;
11092;SDS011;5600;50.864;6.102;2023-02-04T08:21:35;59.27;;;9.97;;
11092;SDS011;5600;50.864;6.102;2023-02-04T08:24:35;70.67;;;10.20;;
11092;SDS011;5600;50.864;6.102;2023-02-04T08:27:36;72.40;;;10.90;;
11092;SDS011;5600;50.864;6.102;2023-02-04T08:30:37;67.60;;;10.83;;
11092;SDS011;5600;50.864;6.102;2023-02-04T08:33:38;78.63;;;10.63;;
11092;SDS011;5600;50.864;6.102;2023-02-04T08:36:39;95.47;;;11.33;;
11092;SDS011;5600;50.864;6.102;2023-02-04T08:39:40;64.60;;;10.07;;
11092;SDS011;5600;50.864;6.102;2023-02-04T08:42:45;75.03;;;10.90;;
11092;SDS011;5600;50.864;6.102;2023-02-04T08:45:45;59.43;;;9.30;;
11092;SDS011;5600;50.864;6.102;2023-02-04T08:48:46;98.37;;;11.17;;
11092;SDS011;5600;50.864;6.102;2023-02-04T08:51:47;86.57;;;10.67;;
11092;SDS011;5600;50.864;6.102;2023-02-04T08:54:47;87.90;;;10.50;;
11092;SDS011;5600;50.864;6.102;2023-02-04T08:57:48;71.87;;;9.87;;
11092;SDS011;5600;50.864;6.102;2023-02-04T09:00:49;145.87;;;12.90;;
11092;SDS011;5600;50.864;6.102;2023-02-04T09:03:50;82.87;;;11.87;;
11092;SDS011;5600;50.864;6.102;2023-02-04T09:06:50;78.57;;;9.63;;
11092;SDS011;5600;50.864;6.102;2023-02-04T09:09:51;81.93;;;10.47;;
11092;SDS011;5600;50.864;6.102;2023-02-04T09:12:52;64.10;;;10.20;;
11092;SDS011;5600;50.864;6.102;2023-02-04T09:15:55;69.63;;;9.53;;
11092;SDS011;5600;50.864;6.102;2023-02-04T09:18:55;80.87;;;10.30;;
11092;SDS011;5600;50.864;6.102;2023-02-04T09:21:57;77.77;;;9.83;;
11092;SDS011;5600;50.864;6.102;2023-02-04T09:24:58;82.37;;;11.17;;
11092;SDS011;5600;50.864;6.102;2023-02-04T09:27:59;73.27;;;9.87;;
11092;SDS011;5600;50.864;6.102;2023-02-04T09:31:01;85.67;;;10.20;;
11092;SDS011;5600;50.864;6.102;2023-02-04T09:34:01;86.20;;;10.33;;
11092;SDS011;5600;50.864;6.102;2023-02-04T09:37:02;84.00;;;10.73;;
11092;SDS011;5600;50.864;6.102;2023-02-04T09:40:03;77.60;;;10.47;;
11092;SDS011;5600;50.864;6.102;2023-02-04T09:43:04;80.13;;;11.30;;
11092;SDS011;5600;50.864;6.102;2023-02-04T09:46:18;93.43;;;11.83;;
11092;SDS011;5600;50.864;6.102;2023-02-04T09:49:20;89.73;;;11.30;;
11092;SDS011;5600;50.864;6.102;2023-02-04T09:52:22;74.80;;;11.07;;
11092;SDS011;5600;50.864;6.102;2023-02-04T09:55:26;85.80;;;11.07;;
11092;SDS011;5600;50.864;6.102;2023-02-04T09:58:30;58.67;;;10.23;;
11092;SDS011;5600;50.864;6.102;2023-02-04T10:01:32;63.33;;;10.07;;
11092;SDS011;5600;50.864;6.102;2023-02-04T10:04:33;79.60;;;11.33;;
11092;SDS011;5600;50.864;6.102;2023-02-04T10:07:33;128.87;;;13.40;;
11092;SDS011;5600;50.864;6.102;2023-02-04T10:10:34;101.90;;;12.70;;
11092;SDS011;5600;50.864;6.102;2023-02-04T10:13:42;75.50;;;11.33;;
11092;SDS011;5600;50.864;6.102;2023-02-04T10:16:51;73.63;;;10.00;;
11092;SDS011;5600;50.864;6.102;2023-02-04T10:19:54;101.97;;;11.73;;
11092;SDS011;5600;50.864;6.102;2023-02-04T10:22:55;81.97;;;10.67;;
11092;SDS011;5600;50.864;6.102;2023-02-04T10:25:56;70.10;;;10.30;;
11092;SDS011;5600;50.864;6.102;2023-02-04T10:29:00;69.10;;;10.47;;
11092;SDS011;5600;50.864;6.102;2023-02-04T10:32:03;369.87;;;25.60;;
11092;SDS011;5600;50.864;6.102;2023-02-04T10:35:04;104.33;;;13.73;;
11092;SDS011;5600;50.864;6.102;2023-02-04T10:38:05;82.67;;;10.87;;
11092;SDS011;5600;50.864;6.102;2023-02-04T10:41:11;102.27;;;13.03;;
11092;SDS011;5600;50.864;6.102;2023-02-04T10:44:13;108.10;;;13.77;;
11092;SDS011;5600;50.864;6.102;2023-02-04T10:47:16;87.20;;;12.90;;
11092;SDS011;5600;50.864;6.102;2023-02-04T10:50:20;127.63;;;14.87;;
11092;SDS011;5600;50.864;6.102;2023-02-04T10:53:22;67.27;;;11.27;;
11092;SDS011;5600;50.864;6.102;2023-02-04T10:56:42;103.00;;;12.37;;
11092;SDS011;5600;50.864;6.102;2023-02-04T10:59:43;108.70;;;11.83;;
11092;SDS011;5600;50.864;6.102;2023-02-04T11:05:51;121.03;;;12.17;;
11092;SDS011;5600;50.864;6.102;2023-02-04T11:08:55;127.30;;;12.30;;
11092;SDS011;5600;50.864;6.102;2023-02-04T11:11:58;101.70;;;11.33;;
11092;SDS011;5600;50.864;6.102;2023-02-04T11:14:59;156.23;;;13.23;;
11092;SDS011;5600;50.864;6.102;2023-02-04T11:18:02;127.00;;;11.00;;
11092;SDS011;5600;50.864;6.102;2023-02-04T11:24:31;137.20;;;12.10;;
11092;SDS011;5600;50.864;6.102;2023-02-04T11:27:37;157.13;;;13.03;;
11092;SDS011;5600;50.864;6.102;2023-02-04T11:30:38;138.70;;;12.17;;
11092;SDS011;5600;50.864;6.102;2023-02-04T11:33:40;113.93;;;11.67;;
11092;SDS011;5600;50.864;6.102;2023-02-04T11:40:21;144.37;;;14.97;;
11092;SDS011;5600;50.864;6.102;2023-02-04T11:43:24;127.17;;;11.90;;
11092;SDS011;5600;50.864;6.102;2023-02-04T11:46:26;136.03;;;12.77;;
11092;SDS011;5600;50.864;6.102;2023-02-04T11:49:28;96.30;;;10.50;;
11092;SDS011;5600;50.864;6.102;2023-02-04T11:52:29;123.97;;;12.40;;
11092;SDS011;5600;50.864;6.102;2023-02-04T11:55:35;107.47;;;10.33;;
11092;SDS011;5600;50.864;6.102;2023-02-04T11:58:42;113.63;;;10.00;;
11092;SDS011;5600;50.864;6.102;2023-02-04T12:01:43;108.43;;;10.13;;
11092;SDS011;5600;50.864;6.102;2023-02-04T12:04:50;122.23;;;10.50;;
11092;SDS011;5600;50.864;6.102;2023-02-04T12:07:54;122.33;;;9.93;;
11092;SDS011;5600;50.864;6.102;2023-02-04T12:11:03;121.90;;;9.47;;
11092;SDS011;5600;50.864;6.102;2023-02-04T12:14:08;93.53;;;8.67;;
11092;SDS011;5600;50.864;6.102;2023-02-04T12:17:15;129.37;;;10.23;;
11092;SDS011;5600;50.864;6.102;2023-02-04T12:20:17;183.53;;;13.03;;
11092;SDS011;5600;50.864;6.102;2023-02-04T12:23:18;105.27;;;9.60;;
11092;SDS011;5600;50.864;6.102;2023-02-04T12:26:19;109.37;;;9.93;;
11092;SDS011;5600;50.864;6.102;2023-02-04T12:29:19;85.93;;;8.40;;
11092;SDS011;5600;50.864;6.102;2023-02-04T12:32:20;69.43;;;7.97;;
11092;SDS011;5600;50.864;6.102;2023-02-04T12:35:20;132.20;;;11.23;;
11092;SDS011;5600;50.864;6.102;2023-02-04T12:38:21;82.23;;;7.63;;
11092;SDS011;5600;50.864;6.102;2023-02-04T12:41:22;75.53;;;7.40;;
11092;SDS011;5600;50.864;6.102;2023-02-04T12:44:22;100.63;;;8.67;;
11092;SDS011;5600;50.864;6.102;2023-02-04T12:47:23;81.67;;;7.47;;
11092;SDS011;5600;50.864;6.102;2023-02-04T12:50:23;100.73;;;8.33;;
11092;SDS011;5600;50.864;6.102;2023-02-04T12:53:25;110.20;;;8.70;;
11092;SDS011;5600;50.864;6.102;2023-02-04T12:56:26;73.13;;;7.40;;
11092;SDS011;5600;50.864;6.102;2023-02-04T12:59:27;80.17;;;7.30;;
11092;SDS011;5600;50.864;6.102;2023-02-04T13:02:30;88.77;;;7.87;;
11092;SDS011;5600;50.864;6.102;2023-02-04T13:05:31;66.80;;;7.30;;
11092;SDS011;5600;50.864;6.102;2023-02-04T13:08:31;87.30;;;8.03;;
11092;SDS011;5600;50.864;6.102;2023-02-04T13:11:32;88.47;;;8.43;;
11092;SDS011;5600;50.864;6.102;2023-02-04T13:14:33;94.97;;;9.27;;
11092;SDS011;5600;50.864;6.102;2023-02-04T13:17:33;73.97;;;8.30;;
11092;SDS011;5600;50.864;6.102;2023-02-04T13:20:34;84.97;;;8.43;;
11092;SDS011;5600;50.864;6.102;2023-02-04T13:23:35;98.00;;;9.03;;
11092;SDS011;5600;50.864;6.102;2023-02-04T13:26:36;82.47;;;8.47;;
11092;SDS011;5600;50.864;6.102;2023-02-04T13:29:37;119.10;;;10.50;;
11092;SDS011;5600;50.864;6.102;2023-02-04T13:32:37;87.37;;;8.67;;
11092;SDS011;5600;50.864;6.102;2023-02-04T13:35:38;62.70;;;7.43;;
11092;SDS011;5600;50.864;6.102;2023-02-04T13:38:38;75.33;;;7.97;;
11092;SDS011;5600;50.864;6.102;2023-02-04T13:41:39;121.87;;;9.40;;
11092;SDS011;5600;50.864;6.102;2023-02-04T13:44:40;134.03;;;10.53;;
11092;SDS011;5600;50.864;6.102;2023-02-04T13:47:40;65.83;;;8.00;;
11092;SDS011;5600;50.864;6.102;2023-02-04T13:50:41;84.30;;;8.77;;
11092;SDS011;5600;50.864;6.102;2023-02-04T13:53:42;67.40;;;7.83;;
11092;SDS011;5600;50.864;6.102;2023-02-04T13:56:42;82.03;;;8.63;;
11092;SDS011;5600;50.864;6.102;2023-02-04T13:59:43;46.40;;;7.87;;
11092;SDS011;5600;50.864;6.102;2023-02-04T14:02:44;76.43;;;9.70;;
11092;SDS011;5600;50.864;6.102;2023-02-04T14:05:44;80.30;;;9.27;;
11092;SDS011;5600;50.864;6.102;2023-02-04T14:08:45;64.13;;;8.43;;
11092;SDS011;5600;50.864;6.102;2023-02-04T14:11:47;95.47;;;10.13;;
11092;SDS011;5600;50.864;6.102;2023-02-04T14:14:47;85.77;;;9.07;;
11092;SDS011;5600;50.864;6.102;2023-02-04T14:17:48;74.77;;;8.20;;
11092;SDS011;5600;50.864;6.102;2023-02-04T14:20:48;68.80;;;7.50;;
11092;SDS011;5600;50.864;6.102;2023-02-04T14:23:49;296.87;;;19.53;;
11092;SDS011;5600;50.864;6.102;2023-02-04T14:26:50;94.47;;;9.40;;
11092;SDS011;5600;50.864;6.102;2023-02-04T14:29:51;66.53;;;8.63;;
11092;SDS011;5600;50.864;6.102;2023-02-04T14:32:52;92.07;;;10.17;;
11092;SDS011;5600;50.864;6.102;2023-02-04T14:35:52;90.73;;;10.93;;
11092;SDS011;5600;50.864;6.102;2023-02-04T14:38:53;76.93;;;9.20;;
11092;SDS011;5600;50.864;6.102;2023-02-04T14:41:54;80.03;;;9.00;;
11092;SDS011;5600;50.864;6.102;2023-02-04T14:44:55;66.17;;;7.80;;
11092;SDS011;5600;50.864;6.102;2023-02-04T14:47:56;84.63;;;8.47;;
11092;SDS011;5600;50.864;6.102;2023-02-04T14:50:59;90.80;;;8.30;;
11092;SDS011;5600;50.864;6.102;2023-02-04T14:54:00;93.93;;;8.80;;
11092;SDS011;5600;50.864;6.102;2023-02-04T14:57:01;62.20;;;6.77;;
11092;SDS011;5600;50.864;6.102;2023-02-04T15:00:03;111.13;;;8.40;;
11092;SDS011;5600;50.864;6.102;2023-02-04T15:03:05;85.07;;;7.43;;
11092;SDS011;5600;50.864;6.102;2023-02-04T15:06:06;81.63;;;7.57;;
11092;SDS011;5600;50.864;6.102;2023-02-04T15:09:07;75.27;;;7.33;;
11092;SDS011;5600;50.864;6.102;2023-02-04T15:12:07;77.17;;;7.30;;
11092;SDS011;5600;50.864;6.102;2023-02-04T15:15:08;85.13;;;7.60;;
11092;SDS011;5600;50.864;6.102;2023-02-04T15:18:10;66.93;;;6.20;;
11092;SDS011;5600;50.864;6.102;2023-02-04T15:21:10;84.53;;;6.70;;
11092;SDS011;5600;50.864;6.102;2023-02-04T15:24:12;98.73;;;8.17;;
11092;SDS011;5600;50.864;6.102;2023-02-04T15:27:12;75.30;;;6.97;;
11092;SDS011;5600;50.864;6.102;2023-02-04T15:30:13;103.13;;;7.93;;
11092;SDS011;5600;50.864;6.102;2023-02-04T15:33:14;108.27;;;8.57;;
11092;SDS011;5600;50.864;6.102;2023-02-04T15:36:15;93.83;;;8.13;;
11092;SDS011;5600;50.864;6.102;2023-02-04T15:39:16;91.93;;;7.97;;
11092;SDS011;5600;50.864;6.102;2023-02-04T15:42:17;68.33;;;6.33;;
11092;SDS011;5600;50.864;6.102;2023-02-04T15:45:17;61.60;;;6.30;;
11092;SDS011;5600;50.864;6.102;2023-02-04T15:48:18;86.40;;;7.43;;
11092;SDS011;5600;50.864;6.102;2023-02-04T15:51:19;69.73;;;7.00;;
11092;SDS011;5600;50.864;6.102;2023-02-04T15:54:19;99.70;;;8.07;;
11092;SDS011;5600;50.864;6.102;2023-02-04T15:57:20;94.33;;;8.53;;
11092;SDS011;5600;50.864;6.102;2023-02-04T16:00:21;117.27;;;9.20;;
11092;SDS011;5600;50.864;6.102;2023-02-04T16:03:22;74.73;;;7.63;;
11092;SDS011;5600;50.864;6.102;2023-02-04T16:06:23;78.33;;;7.77;;
11092;SDS011;5600;50.864;6.102;2023-02-04T16:09:24;53.47;;;6.27;;
11092;SDS011;5600;50.864;6.102;2023-02-04T16:12:25;61.57;;;6.60;;
11092;SDS011;5600;50.864;6.102;2023-02-04T16:15:26;70.70;;;8.13;;
11092;SDS011;5600;50.864;6.102;2023-02-04T16:18:26;98.07;;;9.27;;
11092;SDS011;5600;50.864;6.102;2023-02-04T16:21:27;77.33;;;9.00;;
11092;SDS011;5600;50.864;6.102;2023-02-04T16:24:27;93.27;;;8.63;;
11092;SDS011;5600;50.864;6.102;2023-02-04T16:27:28;77.43;;;8.93;;
11092;SDS011;5600;50.864;6.102;2023-02-04T16:30:30;84.63;;;9.23;;
11092;SDS011;5600;50.864;6.102;2023-02-04T16:33:31;117.13;;;12.73;;
11092;SDS011;5600;50.864;6.102;2023-02-04T16:36:32;87.47;;;8.37;;
11092;SDS011;5600;50.864;6.102;2023-02-04T16:39:33;98.53;;;8.87;;
11092;SDS011;5600;50.864;6.102;2023-02-04T16:42:35;58.13;;;7.17;;
11092;SDS011;5600;50.864;6.102;2023-02-04T16:45:36;44.43;;;6.07;;
11092;SDS011;5600;50.864;6.102;2023-02-04T16:48:37;66.67;;;7.00;;
11092;SDS011;5600;50.864;6.102;2023-02-04T16:51:38;64.60;;;7.47;;
11092;SDS011;5600;50.864;6.102;2023-02-04T16:54:38;68.03;;;8.87;;
11092;SDS011;5600;50.864;6.102;2023-02-04T16:57:39;71.57;;;10.67;;
11092;SDS011;5600;50.864;6.102;2023-02-04T17:00:42;77.17;;;10.77;;
11092;SDS011;5600;50.864;6.102;2023-02-04T17:03:43;67.47;;;9.70;;
11092;SDS011;5600;50.864;6.102;2023-02-04T17:06:44;63.10;;;9.03;;
11092;SDS011;5600;50.864;6.102;2023-02-04T17:09:44;103.20;;;11.90;;
11092;SDS011;5600;50.864;6.102;2023-02-04T17:12:45;78.83;;;12.70;;
11092;SDS011;5600;50.864;6.102;2023-02-04T17:15:46;83.40;;;12.73;;
11092;SDS011;5600;50.864;6.102;2023-02-04T17:18:46;102.30;;;13.20;;
11092;SDS011;5600;50.864;6.102;2023-02-04T17:21:47;84.40;;;11.07;;
11092;SDS011;5600;50.864;6.102;2023-02-04T17:24:48;82.80;;;10.67;;
11092;SDS011;5600;50.864;6.102;2023-02-04T17:27:48;110.20;;;12.73;;
11092;SDS011;5600;50.864;6.102;2023-02-04T17:30:50;62.33;;;12.90;;
11092;SDS011;5600;50.864;6.102;2023-02-04T17:33:51;65.73;;;14.13;;
11092;SDS011;5600;50.864;6.102;2023-02-04T17:36:51;69.40;;;13.27;;
11092;SDS011;5600;50.864;6.102;2023-02-04T17:39:52;89.50;;;14.30;;
11092;SDS011;5600;50.864;6.102;2023-02-04T17:42:53;60.83;;;11.10;;
11092;SDS011;5600;50.864;6.102;2023-02-04T17:45:55;53.87;;;9.10;;
11092;SDS011;5600;50.864;6.102;2023-02-04T17:48:56;94.53;;;12.20;;
11092;SDS011;5600;50.864;6.102;2023-02-04T17:51:57;49.13;;;8.97;;
11092;SDS011;5600;50.864;6.102;2023-02-04T17:54:59;55.40;;;8.73;;
11092;SDS011;5600;50.864;6.102;2023-02-04T17:58:01;64.70;;;8.57;;
11092;SDS011;5600;50.864;6.102;2023-02-04T18:01:14;85.00;;;9.00;;
11092;SDS011;5600;50.864;6.102;2023-02-04T18:04:17;61.53;;;7.80;;
11092;SDS011;5600;50.864;6.102;2023-02-04T18:07:18;78.63;;;10.63;;
11092;SDS011;5600;50.864;6.102;2023-02-04T18:10:20;93.13;;;10.57;;
11092;SDS011;5600;50.864;6.102;2023-02-04T18:13:30;104.23;;;10.27;;
11092;SDS011;5600;50.864;6.102;2023-02-04T18:16:32;74.07;;;8.37;;